메인 페이지
METAR-TAF:

METAR-TAF

공항 :

엘살바도르 국제공항

엘살바도르, 엘살바도르

위도: 13-26N, 경도: 089-03W, 고도: 25m

현재 날씨관측

예보는 28분 전, 19:50시(UTC)에 발표되었습니다.
남서8kt풍과 풍을 오가는
온도 31°C
습도 66%
기압 1008 hPa
시정 10km 이상
고도 2700ft 상공 구름 보통
고도 3700ft 상공 구름 조금, 적란운.
고도 4000ft 상공 구름 보통

METAR: MSLP 181950Z 23008KT 190V260 9999 SCT027 FEW037CB SCT040 31/24 Q1008 A2977 NOSIG CB NE NW

시각: 14:18 (20:18 UTC)

예보

예보는 4 시간 53분 전, 15:25시(UTC)에 발표되었습니다.
예보 대상 시간: 18일 18시부터 19일 18시까지 (UTC)
남남서10kt
시정 10km 이상
고도 2700ft 상공 구름 보통
고도 3700ft 상공 구름 조금, 적란운.
19일 0100시부터 (UTC)
여러 방향의 바람 2kt
고도 2300ft 상공 구름 조금
고도 3700ft 상공 구름 조금, 적란운.
고도 6000ft 상공 구름 보통
일시적
19일 04시부터 19일 09시까지 (UTC)
남동10kt, 순간 최대 풍속 20kt
시정: 5000m
고도 1700ft 상공 구름 보통
고도 3700ft 상공 구름 보통, 적란운.
고도 3700ft 상공 구름 많음
뇌우, 비
19일 1200시부터 (UTC)
동북동2kt
시정 10km 이상
고도 2300ft 상공 구름 조금
고도 7000ft 상공 구름 보통

TAF: MSLP 181525Z 1818/1918 20010KT 9999 SCT027 FEW037CB TX33/1818Z TN24/1910Z FM190100 VRB02KT FEW023 FEW037CB SCT060 TEMPO 1904/1909 13010G20KT 5000 TSRA SCT017 SCT037CB BKN037 FM191200 07002KT 9999 FEW023 SCT070

4,000개 이상의 공항 관측 자료 및 예보 (METAR 및 TAF 보고).

지도상에서 검색 가능한 기상관측소가 노란 점과 빨간 점으로 표시되어 있습니다.

기상관측소 명을 보려면 표시 위로 마우스를 이동하세요.

날씨 관측과 예보를 보려면 클릭하세요.

지도 변경 : 확대하려면 엑스 표시가 있는 녹색 버튼, 축소하려면 빼기 표시가 있는 녹색 버튼, 다음 페이지의 지도를 보려면 녹색 화살표를 클릭하세요.


METAR-TAF: